Time;durP1;ratioP1;P1;durP2;ratioP2;P2;SDS_P1;SDS_P2;PMS_P1;PMS_P2;Temp;Humidity;BMP_temperature;BMP_pressure;BME280_temperature;BME280_humidity;BME280_pressure;Samples;Min_cycle;Max_cycle;Signal;HPM_P1;HPM_P2
2022/07/19 00:02:08;;;;;;;10.02;5.03;;;;;;;22.06;80.56;101775.59;5008822;28;20033;-51
2022/07/19 00:04:34;;;;;;;13.07;5.43;;;;;;;22.06;80.27;101782.94;5000260;28;20159;-51
2022/07/19 00:06:59;;;;;;;13.23;5.40;;;;;;;22.05;80.33;101778.56;5017165;28;20025;-51
2022/07/19 00:09:25;;;;;;;35.13;6.18;;;;;;;21.99;81.70;101766.63;5017137;28;20068;-49
2022/07/19 00:11:52;;;;;;;35.35;6.50;;;;;;;21.99;80.32;101774.78;5014079;28;20025;-49
2022/07/19 00:14:17;;;;;;;26.58;6.15;;;;;;;21.89;79.69;101764.34;5018250;28;20068;-51
2022/07/19 00:16:43;;;;;;;20.80;6.00;;;;;;;21.92;81.06;101768.56;5016207;28;20494;-48
2022/07/19 00:19:08;;;;;;;23.98;5.82;;;;;;;21.91;80.42;101772.31;5017135;28;20025;-48
2022/07/19 00:21:33;;;;;;;15.00;5.68;;;;;;;21.87;79.37;101769.19;4998116;28;20498;-52
2022/07/19 00:24:00;;;;;;;22.50;6.22;;;;;;;21.83;78.99;101767.97;4979828;28;20033;-49
2022/07/19 00:26:26;;;;;;;16.48;6.78;;;;;;;21.83;78.03;101761.69;5008035;28;20380;-50
2022/07/19 00:28:54;;;;;;;16.80;6.85;;;;;;;21.88;78.90;101764.59;5007535;28;20037;-48
2022/07/19 00:31:20;;;;;;;15.18;6.70;;;;;;;21.83;77.30;101753.53;4994986;28;20073;-52
2022/07/19 00:33:45;;;;;;;15.50;6.68;;;;;;;21.85;77.06;101754.16;5005825;28;20014;-52
2022/07/19 00:36:11;;;;;;;17.15;7.28;;;;;;;21.83;76.92;101748.09;5009154;28;20041;-50
2022/07/19 00:38:36;;;;;;;13.77;7.40;;;;;;;21.85;76.73;101752.25;5002929;28;20158;-50
2022/07/19 00:41:02;;;;;;;14.70;7.20;;;;;;;21.84;76.50;101753.28;5007402;28;20022;-51
2022/07/19 00:43:27;;;;;;;16.33;7.38;;;;;;;21.79;76.88;101763.97;5012890;28;20030;-49
2022/07/19 00:45:53;;;;;;;18.15;7.45;;;;;;;21.78;76.76;101754.16;5017737;28;20854;-52
2022/07/19 00:48:18;;;;;;;16.10;7.70;;;;;;;21.76;77.31;101757.09;5016243;28;20060;-50
2022/07/19 00:50:44;;;;;;;22.65;8.35;;;;;;;21.75;76.33;101754.59;5017439;28;20025;-51
2022/07/19 00:53:11;;;;;;;18.38;7.93;;;;;;;21.69;76.21;101756.28;5015217;28;20014;-51
2022/07/19 00:55:40;;;;;;;19.88;8.07;;;;;;;21.59;76.63;101743.13;4984634;28;20394;-52
2022/07/19 00:58:06;;;;;;;14.77;7.47;;;;;;;21.60;76.51;101742.06;4982823;28;20026;-50
2022/07/19 01:00:33;;;;;;;15.30;7.60;;;;;;;21.54;79.29;101742.94;5009632;28;20033;-50
2022/07/19 01:03:00;;;;;;;19.42;7.57;;;;;;;21.50;76.87;101754.44;5008551;28;20049;-51
2022/07/19 01:05:27;;;;;;;15.48;7.65;;;;;;;21.43;77.39;101754.41;4989050;28;20036;-50
2022/07/19 01:07:52;;;;;;;22.88;7.60;;;;;;;21.38;78.17;101756.91;5009067;28;20029;-51
2022/07/19 01:10:17;;;;;;;17.05;7.28;;;;;;;21.33;78.79;101745.84;5015888;28;20384;-51
2022/07/19 01:12:43;;;;;;;14.98;7.75;;;;;;;21.27;78.80;101754.84;4997388;28;20060;-51
2022/07/19 01:15:14;;;;;;;20.08;8.05;;;;;;;21.21;79.29;101751.09;5009965;28;20107;-47
2022/07/19 01:17:39;;;;;;;;;;;;;;;21.31;75.46;101751.50;4997093;28;20445;-48
2022/07/19 01:20:05;;;;;;;20.75;7.72;;;;;;;21.12;80.11;101742.31;5006423;28;19916;-51
2022/07/19 01:22:31;;;;;;;22.58;7.75;;;;;;;21.05;80.49;101741.47;4999631;28;20024;-50
2022/07/19 01:24:56;;;;;;;12.02;6.75;;;;;;;21.03;82.12;101752.56;5015514;28;20380;-55
2022/07/19 01:27:22;;;;;;;20.38;7.63;;;;;;;21.03;81.69;101749.00;5017055;28;20510;-55
2022/07/19 01:29:47;;;;;;;19.65;7.53;;;;;;;20.95;81.03;101747.31;5005360;28;20060;-55
2022/07/19 01:32:12;;;;;;;16.27;7.68;;;;;;;20.94;81.55;101744.81;5005124;28;20026;-55
2022/07/19 01:34:38;;;;;;;17.42;7.38;;;;;;;20.88;82.48;101756.53;5010160;28;20326;-55
2022/07/19 01:37:03;;;;;;;18.70;8.10;;;;;;;20.84;81.70;101758.78;5016400;28;20029;-55
2022/07/19 01:39:28;;;;;;;16.30;7.40;;;;;;;20.74;82.56;101756.50;5011689;28;20032;-56
2022/07/19 01:41:53;;;;;;;16.52;8.07;;;;;;;20.65;83.43;101747.69;5016045;28;20032;-55
2022/07/19 01:44:19;;;;;;;12.35;7.47;;;;;;;20.63;84.03;101751.66;5008240;28;20026;-55
2022/07/19 01:46:44;;;;;;;21.15;8.18;;;;;;;20.62;84.21;101759.00;4996031;28;20037;-55
2022/07/19 01:49:09;;;;;;;15.77;6.78;;;;;;;20.52;84.53;101752.22;5016613;28;20059;-55
2022/07/19 01:51:35;;;;;;;16.77;7.55;;;;;;;20.48;85.74;101752.66;5004433;28;20021;-55
2022/07/19 01:54:00;;;;;;;16.98;7.50;;;;;;;20.45;86.38;101747.66;5015243;28;20049;-55
2022/07/19 01:56:25;;;;;;;14.65;7.70;;;;;;;20.43;88.14;101751.59;5008163;28;20096;-55
2022/07/19 01:58:51;;;;;;;18.58;7.43;;;;;;;20.33;87.62;101757.41;5002321;28;20106;-55
2022/07/19 02:01:16;;;;;;;13.15;6.93;;;;;;;20.25;88.94;101757.59;5015542;28;20032;-55
2022/07/19 02:03:41;;;;;;;14.02;7.13;;;;;;;20.28;89.12;101751.75;5008094;28;20033;-55
2022/07/19 02:06:07;;;;;;;15.95;7.28;;;;;;;20.27;89.34;101750.09;5014746;28;20182;-55
2022/07/19 02:08:32;;;;;;;14.55;8.20;;;;;;;20.18;90.24;101744.00;5013210;28;20029;-55
2022/07/19 02:10:59;;;;;;;18.33;7.60;;;;;;;20.17;91.11;101744.22;4983568;28;20026;-55
2022/07/19 02:13:24;;;;;;;12.52;7.50;;;;;;;20.13;90.87;101747.31;4983763;28;20018;-55
2022/07/19 02:15:50;;;;;;;10.95;7.30;;;;;;;20.05;91.16;101741.25;4996391;28;20033;-55
2022/07/19 02:18:15;;;;;;;14.48;8.00;;;;;;;20.00;91.43;101746.44;5014080;28;20021;-54
2022/07/19 02:20:41;;;;;;;18.20;8.55;;;;;;;19.98;92.30;101737.69;5006753;28;20438;-55
2022/07/19 02:23:06;;;;;;;14.13;8.18;;;;;;;19.98;92.66;101735.78;4995581;28;20026;-55
2022/07/19 02:25:31;;;;;;;19.88;8.90;;;;;;;20.04;90.57;101731.41;4998689;28;20053;-54
2022/07/19 02:27:57;;;;;;;18.05;8.50;;;;;;;19.94;90.55;101727.22;5014122;28;20039;-55
2022/07/19 02:30:22;;;;;;;16.13;8.20;;;;;;;19.96;90.15;101731.59;5009277;28;20547;-55
2022/07/19 02:32:47;;;;;;;14.88;8.20;;;;;;;19.96;89.75;101726.16;5015372;28;20013;-55
2022/07/19 02:35:13;;;;;;;13.82;8.73;;;;;;;19.99;89.02;101723.88;5015995;28;20368;-55
2022/07/19 02:37:40;;;;;;;19.00;8.32;;;;;;;19.98;89.15;101724.94;5008885;28;20036;-55
2022/07/19 02:40:06;;;;;;;14.60;8.32;;;;;;;19.89;89.90;101724.28;4995061;28;20021;-55
2022/07/19 02:42:31;;;;;;;21.80;8.70;;;;;;;19.83;90.05;101726.97;5003164;28;20528;-54
2022/07/19 02:44:56;;;;;;;17.52;9.20;;;;;;;19.83;91.00;101727.78;5016139;28;20109;-55
2022/07/19 02:47:22;;;;;;;15.93;9.05;;;;;;;19.79;90.02;101723.81;4993315;28;20029;-55
2022/07/19 02:49:47;;;;;;;20.23;10.13;;;;;;;19.77;90.17;101719.63;4996691;28;20022;-55
2022/07/19 02:52:12;;;;;;;16.98;9.93;;;;;;;19.78;89.50;101724.03;5014804;28;20032;-55
2022/07/19 02:54:38;;;;;;;19.67;10.02;;;;;;;19.73;90.24;101717.28;4999863;28;20152;-55
2022/07/19 02:57:04;;;;;;;20.08;9.63;;;;;;;19.69;90.87;101716.03;4995443;28;20049;-55
2022/07/19 02:59:29;;;;;;;17.88;9.57;;;;;;;19.65;90.10;101714.72;5014369;28;20511;-55
2022/07/19 03:01:55;;;;;;;14.40;8.38;;;;;;;19.63;90.68;101713.28;5014562;28;20021;-54
2022/07/19 03:04:20;;;;;;;15.88;9.00;;;;;;;19.62;90.91;101708.88;5015530;28;20341;-55
2022/07/19 03:06:45;;;;;;;16.08;8.50;;;;;;;19.60;90.48;101713.66;5014679;28;20036;-55
2022/07/19 03:09:11;;;;;;;15.80;9.00;;;;;;;19.60;90.08;101706.34;5015014;28;20707;-54
2022/07/19 03:11:37;;;;;;;17.88;9.23;;;;;;;19.60;92.03;101700.94;4995382;28;20116;-55
2022/07/19 03:14:02;;;;;;;32.45;10.45;;;;;;;19.55;93.97;101703.41;5004468;28;20140;-55
2022/07/19 03:16:27;;;;;;;31.45;11.43;;;;;;;19.47;94.85;101703.59;4990684;28;20679;-54
2022/07/19 03:18:53;;;;;;;34.55;11.55;;;;;;;19.43;95.19;101697.72;4985892;28;20029;-55
2022/07/19 03:21:18;;;;;;;39.35;11.30;;;;;;;19.38;94.64;101698.34;5006711;28;20032;-55
2022/07/19 03:23:43;;;;;;;30.90;11.32;;;;;;;19.35;96.25;101698.72;5009086;28;20653;-55
2022/07/19 03:26:09;;;;;;;23.15;10.95;;;;;;;19.29;95.08;101702.22;4995924;28;20026;-55
2022/07/19 03:28:34;;;;;;;27.30;10.52;;;;;;;19.25;94.82;101702.84;5001350;28;20088;-55
2022/07/19 03:31:00;;;;;;;22.35;10.82;;;;;;;19.19;96.31;101697.19;5012720;28;20052;-55
2022/07/19 03:33:25;;;;;;;27.98;10.48;;;;;;;19.15;96.94;101686.94;4997118;28;20049;-55
2022/07/19 03:35:50;;;;;;;34.90;11.35;;;;;;;19.08;95.84;101695.00;5001651;28;20034;-55
2022/07/19 03:38:16;;;;;;;22.23;10.30;;;;;;;19.04;95.40;101696.41;5005625;28;20787;-55
2022/07/19 03:40:43;;;;;;;25.52;10.45;;;;;;;18.99;95.00;101698.88;5015680;28;20318;-55
2022/07/19 03:43:08;;;;;;;18.20;9.55;;;;;;;18.97;95.28;101707.19;5008488;28;20045;-55
2022/07/19 03:45:33;;;;;;;16.25;9.90;;;;;;;18.98;95.35;101691.78;5011450;28;20029;-55
2022/07/19 03:48:00;;;;;;;21.80;9.95;;;;;;;18.99;96.77;101685.34;5001462;28;20026;-55
2022/07/19 03:50:25;;;;;;;23.33;9.95;;;;;;;19.04;94.89;101696.41;5001072;28;20036;-55
2022/07/19 03:52:51;;;;;;;17.20;9.68;;;;;;;19.05;94.61;101700.81;5019438;28;20476;-55
2022/07/19 03:55:16;;;;;;;19.08;10.15;;;;;;;19.06;96.50;101699.78;5013795;28;20712;-55
2022/07/19 03:57:41;;;;;;;19.33;9.98;;;;;;;19.07;95.14;101704.13;4998861;28;20339;-55
2022/07/19 04:00:07;;;;;;;18.05;10.52;;;;;;;19.08;95.56;101703.13;4999087;28;20446;-54
2022/07/19 04:02:32;;;;;;;18.55;10.02;;;;;;;19.06;93.82;101698.91;5001632;28;20017;-55
2022/07/19 04:04:57;;;;;;;18.95;10.35;;;;;;;19.06;94.00;101707.03;5018141;28;20021;-55
2022/07/19 04:07:23;;;;;;;20.85;10.10;;;;;;;19.08;94.56;101702.28;5018072;28;20188;-55
2022/07/19 04:09:48;;;;;;;18.75;10.80;;;;;;;19.11;94.90;101710.84;5000328;28;20542;-55
2022/07/19 04:12:13;;;;;;;20.23;10.18;;;;;;;19.08;93.94;101705.00;5019266;28;20025;-56
2022/07/19 04:14:39;;;;;;;17.45;9.90;;;;;;;19.10;94.04;101702.94;5018242;28;20239;-55
2022/07/19 04:17:04;;;;;;;23.17;10.32;;;;;;;19.16;97.50;101696.69;5002476;28;20030;-55
2022/07/19 04:19:30;;;;;;;16.73;9.73;;;;;;;19.18;95.17;101698.19;5007378;28;20030;-55
2022/07/19 04:21:55;;;;;;;18.83;9.77;;;;;;;19.23;94.78;101699.47;5003423;28;20088;-55
2022/07/19 04:24:21;;;;;;;23.45;10.18;;;;;;;19.24;95.55;101701.16;5007031;28;20412;-55
2022/07/19 04:26:46;;;;;;;23.00;10.25;;;;;;;19.27;94.53;101703.47;5010974;28;20469;-54
2022/07/19 04:29:11;;;;;;;19.45;10.30;;;;;;;19.30;94.56;101701.19;5008691;28;20078;-55
2022/07/19 04:31:37;;;;;;;20.58;11.23;;;;;;;19.36;94.79;101703.13;4988206;28;20064;-54
2022/07/19 04:34:02;;;;;;;22.13;10.70;;;;;;;19.38;93.51;101695.63;4997588;28;20169;-55
2022/07/19 04:36:27;;;;;;;21.58;10.27;;;;;;;19.40;93.23;101692.72;5000884;28;20053;-55
2022/07/19 04:38:53;;;;;;;20.10;10.68;;;;;;;19.47;95.40;101695.47;4994788;28;20022;-55
2022/07/19 04:41:18;;;;;;;18.30;10.50;;;;;;;19.48;95.23;101697.97;5008203;28;20151;-55
2022/07/19 04:43:43;;;;;;;25.13;10.57;;;;;;;19.48;93.90;101703.38;5017826;28;20029;-54
2022/07/19 04:46:08;;;;;;;18.05;10.75;;;;;;;19.56;94.41;101699.69;5008557;28;20999;-55
2022/07/19 04:48:34;;;;;;;22.25;11.82;;;;;;;19.57;93.85;101702.19;5012279;28;20033;-55
2022/07/19 04:50:59;;;;;;;22.08;11.20;;;;;;;19.59;92.80;101707.41;4998251;28;20404;-55
2022/07/19 04:53:24;;;;;;;19.73;11.00;;;;;;;19.60;93.28;101711.78;4974626;28;20473;-55
2022/07/19 04:55:50;;;;;;;20.23;10.98;;;;;;;19.66;96.52;101702.03;5010364;28;20030;-54
2022/07/19 04:58:15;;;;;;;23.50;10.95;;;;;;;19.70;96.79;101703.28;4988637;28;20276;-55
2022/07/19 05:00:40;;;;;;;20.92;10.50;;;;;;;19.72;96.42;101710.19;5000269;28;20377;-55
2022/07/19 05:03:06;;;;;;;20.33;10.90;;;;;;;19.75;93.85;101711.69;4999026;28;20033;-55
2022/07/19 05:05:31;;;;;;;24.50;11.30;;;;;;;19.77;94.02;101709.59;5017607;28;20408;-55
2022/07/19 05:07:56;;;;;;;24.02;11.40;;;;;;;19.77;93.61;101703.34;5017124;28;20472;-54
2022/07/19 05:10:22;;;;;;;24.80;11.60;;;;;;;19.85;95.30;101697.78;5007186;28;20033;-55
2022/07/19 05:12:47;;;;;;;23.15;11.60;;;;;;;19.86;93.25;101697.56;5015790;28;20104;-54
2022/07/19 05:15:12;;;;;;;27.15;12.98;;;;;;;19.90;98.07;101700.72;4996804;28;20340;-54
2022/07/19 05:17:38;;;;;;;27.00;13.18;;;;;;;19.98;92.84;101703.25;5009991;28;20033;-54
2022/07/19 05:20:05;;;;;;;26.50;13.50;;;;;;;20.06;93.08;101710.34;4997253;28;20026;-55
2022/07/19 05:22:30;;;;;;;28.27;13.45;;;;;;;20.08;93.62;101692.03;5011226;28;20487;-54
2022/07/19 05:24:56;;;;;;;29.33;14.18;;;;;;;20.20;94.50;101698.53;5006499;28;20135;-55
2022/07/19 05:27:22;;;;;;;24.27;14.10;;;;;;;20.23;91.79;101695.41;5012571;28;20488;-55
2022/07/19 05:29:47;;;;;;;31.40;15.77;;;;;;;20.34;91.41;101699.41;4998949;28;20046;-55
2022/07/19 05:32:13;;;;;;;25.73;15.70;;;;;;;20.43;93.10;101709.00;4995695;28;20054;-54
2022/07/19 05:34:38;;;;;;;26.65;14.25;;;;;;;20.53;92.73;101705.06;4993929;28;20144;-55
2022/07/19 05:37:04;;;;;;;21.65;14.02;;;;;;;20.58;93.49;101703.41;4993430;28;20017;-55
2022/07/19 05:39:29;;;;;;;27.17;15.32;;;;;;;20.65;94.13;101703.44;5016713;28;20649;-54
2022/07/19 05:41:54;;;;;;;29.30;16.13;;;;;;;20.77;90.76;101706.38;5013208;28;20018;-54
2022/07/19 05:44:20;;;;;;;36.10;16.35;;;;;;;20.87;93.68;101706.78;5004484;28;20449;-54
2022/07/19 05:46:45;;;;;;;40.50;19.67;;;;;;;20.93;91.26;101705.97;5015602;28;20036;-54
2022/07/19 05:49:11;;;;;;;40.28;20.58;;;;;;;21.04;90.04;101707.22;5011436;28;20389;-55
2022/07/19 05:51:37;;;;;;;44.00;22.15;;;;;;;21.11;85.27;101713.47;5008041;28;20129;-55
2022/07/19 05:54:03;;;;;;;37.60;22.88;;;;;;;21.15;88.46;101712.03;5015943;28;20051;-55
2022/07/19 05:56:29;;;;;;;41.70;23.40;;;;;;;21.23;82.97;101709.09;5011725;28;20152;-55
2022/07/19 05:58:54;;;;;;;39.95;23.25;;;;;;;21.31;86.45;101710.72;5005804;28;20060;-55
2022/07/19 06:01:22;;;;;;;64.05;24.55;;;;;;;21.42;82.55;101706.56;4995725;28;20037;-55
2022/07/19 06:03:53;;;;;;;51.28;24.20;;;;;;;21.50;82.39;101706.34;4996582;28;20510;-55
2022/07/19 06:06:19;;;;;;;31.58;23.30;;;;;;;21.60;85.04;101705.88;5008635;28;20457;-54
2022/07/19 06:08:45;;;;;;;43.05;25.63;;;;;;;21.64;78.91;101714.44;5004460;28;20029;-55
2022/07/19 06:11:11;;;;;;;48.50;24.45;;;;;;;21.77;79.66;101715.25;5005534;28;20029;-55
2022/07/19 06:13:37;;;;;;;38.15;24.27;;;;;;;21.87;77.48;101712.06;4991554;28;20040;-55
2022/07/19 06:16:03;;;;;;;37.90;23.52;;;;;;;22.03;79.70;101712.63;5014941;28;20029;-55
2022/07/19 06:18:34;;;;;;;40.60;23.88;;;;;;;22.12;75.36;101712.19;4997116;28;20457;-55
2022/07/19 06:21:01;;;;;;;44.80;23.75;;;;;;;22.26;75.85;101717.56;4996401;28;20477;-54
2022/07/19 06:23:27;;;;;;;36.33;23.85;;;;;;;22.43;72.60;101720.63;4996161;28;20018;-57
2022/07/19 06:25:53;;;;;;;39.63;22.98;;;;;;;22.57;72.45;101716.75;4989743;28;20437;-56
2022/07/19 06:28:18;;;;;;;36.40;22.30;;;;;;;22.66;72.61;101707.28;4994341;28;20055;-55
2022/07/19 06:30:43;;;;;;;50.72;21.08;;;;;;;22.79;70.26;101716.41;4994912;28;20077;-55
2022/07/19 06:33:08;;;;;;;39.70;19.08;;;;;;;22.99;67.12;101719.78;4994195;28;20037;-54
2022/07/19 06:35:34;;;;;;;40.70;18.70;;;;;;;23.15;63.93;101715.72;5004304;28;20018;-54
2022/07/19 06:37:59;;;;;;;35.45;17.67;;;;;;;23.26;65.20;101719.59;5007637;28;20021;-53
2022/07/19 06:40:24;;;;;;;37.33;17.02;;;;;;;23.35;62.26;101715.50;4993902;28;20129;-54
2022/07/19 06:42:49;;;;;;;34.80;16.50;;;;;;;23.51;62.33;101716.81;4991653;28;20022;-55
2022/07/19 06:45:15;;;;;;;31.77;16.90;;;;;;;23.62;62.25;101712.50;5004722;28;20040;-55
2022/07/19 06:47:40;;;;;;;33.58;16.85;;;;;;;23.75;60.38;101704.16;5007291;28;20139;-55
2022/07/19 06:50:06;;;;;;;35.83;17.02;;;;;;;23.84;60.48;101708.25;4996123;28;20037;-55
2022/07/19 06:52:31;;;;;;;42.25;16.83;;;;;;;23.92;58.16;101707.13;4995881;28;20096;-55
2022/07/19 06:54:56;;;;;;;45.63;17.10;;;;;;;24.07;58.40;101711.38;4995691;28;20037;-54
2022/07/19 06:57:22;;;;;;;29.83;16.17;;;;;;;24.18;59.06;101711.38;4995457;28;20472;-54
2022/07/19 06:59:47;;;;;;;35.15;17.92;;;;;;;24.34;58.71;101709.94;4978688;28;20028;-54
2022/07/19 07:02:12;;;;;;;48.08;17.05;;;;;;;24.38;59.37;101708.38;4997648;28;20021;-54
2022/07/19 07:04:38;;;;;;;36.45;17.35;;;;;;;24.52;57.10;101703.56;4991004;28;20029;-54
2022/07/19 07:07:03;;;;;;;40.88;17.52;;;;;;;24.67;57.97;101705.06;4999412;28;20037;-54
2022/07/19 07:09:28;;;;;;;42.10;16.77;;;;;;;24.85;57.75;101704.16;4978623;28;20029;-54
2022/07/19 07:11:54;;;;;;;35.17;16.17;;;;;;;24.90;55.67;101702.34;4996213;28;20232;-54
2022/07/19 07:14:19;;;;;;;33.25;15.75;;;;;;;25.11;56.76;101700.09;4996128;28;20029;-54
2022/07/19 07:16:44;;;;;;;37.72;16.55;;;;;;;25.23;53.95;101700.09;4995005;28;20686;-52
2022/07/19 07:19:09;;;;;;;33.05;16.30;;;;;;;25.40;53.44;101698.34;4995966;28;20025;-54
2022/07/19 07:21:35;;;;;;;28.05;14.43;;;;;;;25.56;53.41;101693.19;4995128;28;20017;-54
2022/07/19 07:24:04;;;;;;;37.88;15.50;;;;;;;25.74;53.05;101703.16;5000163;28;20030;-54
2022/07/19 07:26:30;;;;;;;35.45;15.55;;;;;;;25.80;54.18;101704.94;5000066;28;20616;-55
2022/07/19 07:28:56;;;;;;;36.92;15.00;;;;;;;25.98;53.60;101699.28;4999579;28;20124;-55
2022/07/19 07:31:21;;;;;;;33.25;15.40;;;;;;;26.11;53.64;101695.44;4998478;28;20168;-56
2022/07/19 07:33:46;;;;;;;37.90;14.00;;;;;;;26.21;53.64;101698.38;4999715;28;20105;-55
2022/07/19 07:36:11;;;;;;;25.25;13.88;;;;;;;26.36;52.55;101700.56;4998541;28;20311;-55
2022/07/19 07:38:37;;;;;;;31.30;14.32;;;;;;;26.50;53.40;101687.38;4996355;28;20101;-54
2022/07/19 07:41:04;;;;;;;34.42;15.70;;;;;;;26.64;50.45;101700.78;5005617;28;20378;-54
2022/07/19 07:43:29;;;;;;;38.00;14.35;;;;;;;26.70;51.96;101695.16;4999846;28;20639;-54
2022/07/19 07:45:54;;;;;;;47.10;14.15;;;;;;;26.80;51.46;101687.09;5005820;28;20140;-52
2022/07/19 07:48:20;;;;;;;34.38;13.63;;;;;;;26.91;51.29;101688.06;5000212;28;20237;-53
2022/07/19 07:50:45;;;;;;;29.48;12.73;;;;;;;27.12;53.95;101689.22;4990960;28;20059;-53
2022/07/19 07:53:10;;;;;;;34.85;15.70;;;;;;;27.28;53.22;101682.06;5015188;28;20044;-54
2022/07/19 07:55:39;;;;;;;35.45;18.00;;;;;;;27.39;52.48;101682.22;5014528;28;20125;-50
2022/07/19 07:58:09;;;;;;;36.47;16.20;;;;;;;27.58;51.81;101682.72;5008386;28;20497;-50
2022/07/19 08:00:35;;;;;;;26.00;13.10;;;;;;;27.69;50.95;101681.78;4997974;28;20049;-48
2022/07/19 08:03:00;;;;;;;31.23;12.80;;;;;;;27.75;49.19;101686.25;4998693;28;20074;-48
2022/07/19 08:05:26;;;;;;;28.10;13.82;;;;;;;27.80;49.70;101685.47;4998403;28;20426;-51
2022/07/19 08:07:51;;;;;;;26.27;10.80;;;;;;;27.99;54.30;101681.34;5001860;28;20371;-51
2022/07/19 08:10:16;;;;;;;29.33;10.93;;;;;;;28.14;50.50;101688.06;4997005;28;20431;-50
2022/07/19 08:12:42;;;;;;;30.42;11.77;;;;;;;28.15;47.31;101681.50;4979633;28;20037;-51
2022/07/19 08:15:07;;;;;;;29.92;10.70;;;;;;;28.25;49.48;101678.84;4994596;28;20034;-52
2022/07/19 08:17:33;;;;;;;31.85;9.90;;;;;;;28.40;52.60;101680.91;4990924;28;20020;-49
2022/07/19 08:19:59;;;;;;;26.40;9.80;;;;;;;28.58;46.16;101675.06;4995511;28;20397;-47
2022/07/19 08:22:24;;;;;;;23.50;8.10;;;;;;;28.73;49.53;101673.50;5005112;28;20030;-50
2022/07/19 08:24:49;;;;;;;28.58;8.93;;;;;;;28.83;54.13;101674.41;5008940;28;20444;-51
2022/07/19 08:27:15;;;;;;;26.48;8.15;;;;;;;28.98;47.30;101673.69;5014447;28;20036;-54
2022/07/19 08:29:40;;;;;;;31.40;7.77;;;;;;;29.09;46.20;101674.59;5010881;28;20042;-52
2022/07/19 08:32:05;;;;;;;29.83;8.03;;;;;;;29.20;47.80;101672.75;5003711;28;20280;-51
2022/07/19 08:34:31;;;;;;;29.95;7.22;;;;;;;29.35;43.57;101672.00;5013089;28;21118;-51
2022/07/19 08:36:56;;;;;;;21.95;7.15;;;;;;;29.39;46.11;101671.19;5013140;28;20129;-51
2022/07/19 08:39:22;;;;;;;25.17;8.30;;;;;;;29.46;44.60;101670.13;5017800;28;20080;-50
2022/07/19 08:41:47;;;;;;;20.92;7.95;;;;;;;29.59;44.26;101664.13;5017221;28;20056;-51
2022/07/19 08:44:13;;;;;;;24.20;7.85;;;;;;;29.77;43.92;101662.84;5018042;28;20029;-51
2022/07/19 08:46:42;;;;;;;17.35;6.43;;;;;;;29.88;44.72;101663.69;5012703;28;20108;-52
2022/07/19 08:49:10;;;;;;;17.75;6.78;;;;;;;30.02;44.98;101655.75;5010311;28;20129;-53
2022/07/19 08:51:36;;;;;;;24.17;6.05;;;;;;;30.12;43.01;101664.84;4996026;28;20038;-52
2022/07/19 08:54:02;;;;;;;17.52;6.50;;;;;;;30.29;45.10;101661.00;5009668;28;20113;-53
2022/07/19 08:59:13;;;;;;;15.35;5.57;;;;;;;30.42;42.29;101657.75;4997517;28;20045;-51
2022/07/19 09:01:38;;;;;;;27.23;6.20;;;;;;;30.48;41.13;101656.66;4986269;28;20332;-51
2022/07/19 09:04:16;;;;;;;23.38;6.50;;;;;;;30.63;43.62;101666.00;4995243;28;20090;-54
2022/07/19 09:06:52;;;;;;;26.25;6.68;;;;;;;30.73;43.29;101657.72;5001341;28;20114;-51
2022/07/19 09:09:23;;;;;;;22.20;6.40;;;;;;;30.84;43.05;101656.63;5004276;28;20048;-52
2022/07/19 09:11:53;;;;;;;17.88;6.13;;;;;;;30.99;42.87;101654.94;5012631;28;20033;-52
2022/07/19 09:14:30;;;;;;;23.33;5.82;;;;;;;31.03;40.30;101654.13;5000919;28;20017;-53
2022/07/19 09:17:03;;;;;;;24.80;5.47;;;;;;;31.12;41.56;101656.31;4995457;28;20038;-53
2022/07/19 09:19:37;;;;;;;18.98;5.38;;;;;;;31.26;46.72;101651.00;5000479;28;20562;-53
2022/07/19 09:22:07;;;;;;;27.30;6.43;;;;;;;31.44;44.58;101644.88;5009761;28;20037;-53
2022/07/19 09:24:37;;;;;;;;;;;;;;;31.64;45.25;101643.97;5000582;28;20028;-53
2022/07/19 09:27:11;;;;;;;23.08;7.60;;;;;;;31.61;47.40;101639.84;4972240;28;20144;-53
2022/07/19 09:29:40;;;;;;;21.55;6.57;;;;;;;31.73;46.29;101641.44;4996332;28;20064;-52
2022/07/19 09:32:08;;;;;;;18.25;6.30;;;;;;;31.80;43.24;101640.00;4995988;28;20534;-53
2022/07/19 09:34:39;;;;;;;21.23;6.50;;;;;;;31.94;45.48;101642.97;4994569;28;20068;-53
2022/07/19 09:37:15;;;;;;;36.70;6.40;;;;;;;32.06;44.60;101641.81;4988061;28;20136;-53
2022/07/19 09:39:44;;;;;;;22.98;6.60;;;;;;;32.20;41.45;101639.22;4995635;28;20088;-53
2022/07/19 09:42:11;;;;;;;14.15;5.72;;;;;;;32.28;44.40;101638.59;4999422;28;20041;-51
2022/07/19 09:44:36;;;;;;;19.58;5.85;;;;;;;32.38;39.26;101627.44;5005240;28;20238;-54
2022/07/19 09:47:02;;;;;;;28.45;5.57;;;;;;;32.54;37.63;101637.25;4988270;28;20040;-49
2022/07/19 09:49:28;;;;;;;18.27;5.78;;;;;;;32.60;36.12;101634.44;5016471;28;20033;-53
2022/07/19 09:51:54;;;;;;;14.50;5.57;;;;;;;32.74;36.49;101631.84;5016766;28;20025;-51
2022/07/19 09:54:22;;;;;;;11.02;5.25;;;;;;;32.80;34.76;101631.50;5015806;28;20033;-52
2022/07/19 09:56:50;;;;;;;14.18;5.05;;;;;;;32.89;39.14;101632.53;5016994;28;20018;-51
2022/07/19 09:59:16;;;;;;;21.25;5.30;;;;;;;32.94;33.90;101634.41;5013102;28;20109;-54
2022/07/19 10:01:42;;;;;;;13.60;5.15;;;;;;;33.11;36.50;101633.94;5003060;28;20013;-53
2022/07/19 10:04:14;;;;;;;15.60;5.40;;;;;;;33.15;37.57;101631.44;5001010;28;20044;-52
2022/07/19 10:06:40;;;;;;;17.98;5.15;;;;;;;33.35;35.46;101633.97;5006389;28;20018;-51
2022/07/19 10:09:12;;;;;;;14.35;5.30;;;;;;;33.51;34.06;101626.28;4995336;28;20030;-52
2022/07/19 10:11:38;;;;;;;15.98;5.25;;;;;;;33.70;36.37;101626.31;4989842;28;20230;-53
2022/07/19 10:14:03;;;;;;;16.05;5.50;;;;;;;33.85;32.98;101624.44;4996660;28;20104;-51
2022/07/19 10:16:47;;;;;;;21.02;6.30;;;;;;;33.93;32.30;101626.50;4973640;28;20049;-53
2022/07/19 10:19:30;;;;;;;17.40;5.50;;;;;;;33.78;31.63;101625.63;4995649;28;20025;-53
2022/07/19 10:21:57;;;;;;;24.65;5.28;;;;;;;33.65;34.58;101621.63;4996045;28;20033;-52
2022/07/19 10:24:41;;;;;;;22.70;5.53;;;;;;;33.73;32.66;101622.13;4995095;28;20025;-51
2022/07/19 10:27:08;;;;;;;21.33;5.00;;;;;;;33.90;34.42;101622.41;4996017;28;20267;-53
2022/07/19 10:29:33;;;;;;;17.02;5.80;;;;;;;34.14;32.35;101616.75;4991444;28;20053;-50
2022/07/19 10:32:07;;;;;;;17.30;5.43;;;;;;;34.35;32.64;101620.06;4993672;28;20025;-52
2022/07/19 10:34:33;;;;;;;9.55;4.80;;;;;;;34.52;33.31;101619.47;4990215;28;20013;-52
2022/07/19 10:36:58;;;;;;;19.17;5.25;;;;;;;34.63;32.03;101609.00;4997974;28;20462;-52
2022/07/19 10:39:30;;;;;;;18.17;5.30;;;;;;;34.77;33.23;101613.78;5012349;28;20484;-53
2022/07/19 10:42:13;;;;;;;16.73;5.45;;;;;;;34.88;30.70;101610.50;5011551;28;20017;-53
2022/07/19 10:44:59;;;;;;;14.00;5.47;;;;;;;34.80;29.72;101600.13;4998860;28;20368;-53
2022/07/19 10:47:37;;;;;;;15.02;5.50;;;;;;;34.64;29.67;101604.28;5002075;28;20472;-52
2022/07/19 10:50:04;;;;;;;13.80;5.60;;;;;;;34.62;30.63;101595.44;4996164;28;20033;-51
2022/07/19 10:52:33;;;;;;;13.45;5.28;;;;;;;34.83;30.51;101595.88;4995305;28;20049;-54
2022/07/19 10:55:18;;;;;;;16.25;5.13;;;;;;;34.95;29.11;101593.44;4993113;28;20458;-53
2022/07/19 10:57:46;;;;;;;17.35;5.35;;;;;;;35.10;29.38;101592.28;4998486;28;20116;-53
2022/07/19 11:00:26;;;;;;;14.75;5.03;;;;;;;35.38;28.68;101593.09;4998037;28;20562;-53
2022/07/19 11:03:12;;;;;;;21.63;5.20;;;;;;;35.38;28.47;101584.78;4999387;28;20064;-53
2022/07/19 11:05:53;;;;;;;21.80;5.63;;;;;;;35.50;30.81;101589.78;4993483;28;20026;-53
2022/07/19 11:08:33;;;;;;;17.88;5.22;;;;;;;35.59;29.54;101590.69;4999197;28;20115;-53
2022/07/19 11:11:19;;;;;;;11.45;4.97;;;;;;;35.65;30.59;101581.09;4979869;28;20367;-53
2022/07/19 11:13:46;;;;;;;19.73;5.25;;;;;;;35.79;27.91;101564.38;4999639;28;20022;-53
2022/07/19 11:16:12;;;;;;;14.25;5.10;;;;;;;35.92;27.85;101571.03;4993652;28;20025;-55